Terminal Aerodrome Forecast
Issued by NWS Cleveland, OH

Home | Current Version | Previous Version | Graphics & Text | Print | Product List | Glossary On
Versions: 1 2 3 4 5 6 7 8 9 10 11 12 13 14 15 16 17 18 19 20 21 22
000
FTUS41 KCLE 240534
TAFCAK
TAF
KCAK 240534Z 2406/2506 15006KT P6SM VCSH SCT025 BKN045
      TEMPO 2406/2410 5SM BR BKN025
     FM241000 17007KT P6SM BKN045
     FM241700 19016G24KT P6SM SCT045 BKN200
     FM250000 18011KT P6SM SCT045 BKN200=

USA.gov is the U.S. government's official web portal to all federal, state and local government web resources and services.